Flight Track Log - Related Links

Times and Time Zones

All times are in EDT time to prevent confusion due to time zone crossing. See the AVN50 flight status page for this flight to view local times or setup timezone preferences in your user account.

Time Position Orientation Groundspeed Altitude Reporting Facility
EDT Latitude Longitude Course Direction KTS MPH feet Rate Location/Type
Fri 04:08:00 PM -18.0080 168.4035 166° South  Level FlightAware Approximate
Fri 04:09:00 PM -18.1109 168.4314 166° South  Level FlightAware Approximate
Fri 04:10:00 PM -18.2138 168.4594 166° South  Level FlightAware Approximate
Fri 04:11:00 PM -18.3167 168.4874 166° South  Level FlightAware Approximate
Fri 04:12:00 PM -18.4196 168.5155 165° South  Level FlightAware Approximate
Fri 04:13:00 PM -18.5225 168.5436 165° South  Level FlightAware Approximate
Fri 04:14:00 PM -18.6253 168.5717 165° South  Level FlightAware Approximate
Fri 04:15:00 PM -18.7282 168.5999 165° South  Level FlightAware Approximate
Fri 04:16:00 PM -18.8311 168.6281 165° South  Level FlightAware Approximate
Fri 04:17:00 PM -18.9339 168.6563 165° South  Level FlightAware Approximate
Fri 04:18:00 PM -19.0368 168.6846 165° South  Level FlightAware Approximate
Fri 04:19:00 PM -19.1396 168.7128 165° South  Level FlightAware Approximate
Fri 04:20:00 PM -19.2425 168.7412 165° South  Level FlightAware Approximate
Fri 04:21:00 PM -19.3453 168.7695 165° South  Level FlightAware Approximate
Fri 04:22:00 PM -19.4482 168.7979 165° South  Level FlightAware Approximate
Fri 04:23:00 PM -19.5510 168.8264 165° South  Level FlightAware Approximate
Fri 04:24:00 PM -19.6538 168.8549 165° South  Level FlightAware Approximate
Fri 04:25:00 PM -19.7567 168.8834 165° South  Level FlightAware Approximate
Fri 04:26:00 PM -19.8595 168.9119 165° South  Level FlightAware Approximate
Fri 04:27:00 PM -19.9623 168.9405 165° South  Level FlightAware Approximate
Fri 04:28:00 PM -20.0651 168.9691 165° South  Level FlightAware Approximate
Fri 04:29:00 PM -20.1679 168.9978 165° South  Level FlightAware Approximate
Fri 04:30:00 PM -20.2707 169.0265 165° South  Level FlightAware Approximate
Fri 04:31:00 PM -20.3735 169.0552 165° South  Level FlightAware Approximate
Fri 04:32:00 PM -20.4763 169.0840 165° South  Level FlightAware Approximate
Fri 04:33:00 PM -20.5791 169.1128 165° South  Level FlightAware Approximate
Fri 04:34:00 PM -20.6819 169.1417 165° South  Level FlightAware Approximate
Fri 04:35:00 PM -20.7847 169.1706 165° South  Level FlightAware Approximate
Fri 04:36:00 PM -20.8874 169.1995 165° South  Level FlightAware Approximate
Fri 04:37:00 PM -20.9902 169.2285 165° South  Level FlightAware Approximate
Fri 04:38:00 PM -21.0930 169.2575 165° South  Level FlightAware Approximate
Fri 04:39:00 PM -21.1957 169.2865 165° South  Level FlightAware Approximate
Fri 04:40:00 PM -21.2985 169.3156 165° South  Level FlightAware Approximate
Fri 04:41:00 PM -21.4013 169.3447 165° South  Level FlightAware Approximate
Fri 04:42:00 PM -21.5040 169.3739 165° South  Level FlightAware Approximate
Fri 04:43:00 PM -21.6067 169.4031 165° South  Level FlightAware Approximate
Fri 04:44:00 PM -21.7095 169.4324 165° South  Level FlightAware Approximate
Fri 04:45:00 PM -21.8122 169.4617 165° South  Level FlightAware Approximate
Fri 04:46:00 PM -21.9149 169.4910 165° South  Level FlightAware Approximate
Fri 04:47:00 PM -22.0176 169.5204 165° South  Level FlightAware Approximate
Fri 04:48:00 PM -22.1203 169.5498 165° South  Level FlightAware Approximate
Fri 04:49:00 PM -22.2231 169.5793 165° South  Level FlightAware Approximate
Fri 04:50:00 PM -22.3258 169.6088 165° South  Level FlightAware Approximate
Fri 04:51:00 PM -22.4285 169.6384 165° South  Level FlightAware Approximate
Fri 04:52:00 PM -22.5312 169.6680 165° South  Level FlightAware Approximate
Fri 04:53:00 PM -22.6338 169.6976 165° South  Level FlightAware Approximate
Fri 04:54:00 PM -22.7365 169.7273 165° South  Level FlightAware Approximate
Fri 04:55:00 PM -22.8392 169.7570 165° South  Level FlightAware Approximate
Fri 04:56:00 PM -22.9419 169.7868 165° South  Level FlightAware Approximate
Fri 04:57:00 PM -23.0445 169.8166 165° South  Level FlightAware Approximate
Fri 04:58:00 PM -23.1472 169.8465 165° South  Level FlightAware Approximate
Fri 04:59:00 PM -23.2498 169.8764 165° South  Level FlightAware Approximate
Fri 05:00:00 PM -23.3525 169.9064 165° South  Level FlightAware Approximate
Fri 05:01:00 PM -23.4551 169.9364 165° South  Level FlightAware Approximate
Fri 05:02:00 PM -23.5578 169.9664 165° South  Level FlightAware Approximate
Fri 05:03:00 PM -23.6604 169.9965 165° South  Level FlightAware Approximate
Fri 05:04:00 PM -23.7630 170.0267 165° South  Level FlightAware Approximate
Fri 05:05:00 PM -23.8657 170.0568 165° South  Level FlightAware Approximate
Fri 05:06:00 PM -23.9683 170.0871 165° South  Level FlightAware Approximate
Fri 05:07:00 PM -24.0704 170.1194 164° South  Level Estimated
Fri 05:08:00 PM -24.1728 170.1504 165° South  Level FlightAware Approximate
Fri 05:09:00 PM -24.2752 170.1814 165° South  Level FlightAware Approximate
Fri 05:10:00 PM -24.3777 170.2125 165° South  Level FlightAware Approximate
Fri 05:11:00 PM -24.4801 170.2436 165° South  Level FlightAware Approximate
Fri 05:12:00 PM -24.5825 170.2748 165° South  Level FlightAware Approximate
Fri 05:13:00 PM -24.6849 170.3060 165° South  Level FlightAware Approximate
Fri 05:13:06 PM -25.7333 170.6167 164° South 473 544  Level New Zealand
Fri 05:14:00 PM -24.7873 170.3373 164° South  Level FlightAware Approximate
Fri 05:15:00 PM -24.8897 170.3686 164° South  Level FlightAware Approximate
Fri 05:15:06 PM -25.9833 170.7000 163° South 462 532  Level New Zealand
Fri 05:17:06 PM -26.2333 170.7667 167° South 462 532 562 Level New Zealand
Fri 05:19:06 PM -26.4833 170.8500 163° South 462 532 581 Level New Zealand
Fri 05:21:06 PM -26.7333 170.9333 163° South 462 532 601 Level New Zealand
Fri 05:23:06 PM -26.9833 171.0167 163° South 462 532 622 Level New Zealand
Fri 05:25:06 PM -27.2333 171.0833 167° South 462 532 645 Level New Zealand
Fri 05:27:06 PM -27.4667 171.1667 162° South 462 532 670 Level New Zealand
Fri 05:29:06 PM -27.7167 171.2500 164° South 462 532 696 Level New Zealand
Fri 05:31:06 PM -27.9667 171.3333 164° South 462 532 725 Level New Zealand
Fri 05:33:06 PM -28.2167 171.4167 164° South 462 532 756 Level New Zealand
Fri 05:35:07 PM -28.4667 171.5000 164° South 462 532 791 Level New Zealand
Fri 05:37:07 PM -28.7167 171.5833 164° South 462 532 828 Level New Zealand
Fri 05:39:07 PM -28.9667 171.6667 164° South 462 532 870 Level New Zealand
Fri 05:41:07 PM -29.2000 171.7333 166° South 462 532 915 Level New Zealand
Fri 05:43:07 PM -29.4500 171.8167 164° South 462 532 966 Level New Zealand
Fri 05:45:07 PM -29.7000 171.9167 161° South 468 539 1,022 Level New Zealand
Fri 05:47:07 PM -29.9500 172.0000 164° South 468 539 1,085 Level New Zealand
Fri 05:49:07 PM -30.2000 172.0833 164° South 468 539 1,157 Level New Zealand
Fri 05:51:07 PM -30.4500 172.1667 164° South 463 533 1,239 Level New Zealand
Fri 05:53:07 PM -30.6833 172.2500 163° South 463 533 1,333 Level New Zealand
Fri 05:55:07 PM -30.9333 172.3333 164° South 463 533 1,443 Level New Zealand
Fri 05:57:07 PM -31.1833 172.4167 164° South 463 533 1,573 Level New Zealand
Fri 05:59:07 PM -31.4333 172.5000 164° South 463 533 1,728 Level New Zealand
Fri 06:01:07 PM -31.6833 172.6000 161° South 463 533 1,918 Level New Zealand
Fri 06:03:07 PM -31.9167 172.6833 163° South 463 533 2,154 Level New Zealand
Fri 06:05:07 PM -32.1667 172.7667 164° South 463 533 2,456 Level New Zealand
Fri 06:07:07 PM -32.4167 172.8500 164° South 463 533 2,857 Level New Zealand
Fri 06:09:07 PM -32.6667 172.9500 161° South 463 533 3,415 Level New Zealand
Fri 06:11:07 PM -32.9167 173.0333 164° South 463 533 4,242 Level New Zealand
Fri 06:13:07 PM -33.1500 173.1167 163° South 463 533 5,600 Level New Zealand
Fri 06:15:07 PM -33.4000 173.2167 162° South 463 533 8,235 Level New Zealand
Fri 06:17:07 PM -33.6500 173.3000 164° South 463 533 15,556 Level New Zealand
Fri 06:17:22 PM -33.6850 173.3170 164° South 440 506 35,000 46,667 Climbing FlightAware ADS-B
Fri 06:17:52 PM -33.7410 173.3390 162° South 441 507 35,000  Level FlightAware ADS-B
Fri 06:18:33 PM -33.8333 173.3667 162° South 448 516  Descending New Zealand
Fri 06:18:42 PM -33.8470 173.3790 162° South 442 509 35,000 42,857 Climbing FlightAware ADS-B
Fri 06:19:22 PM -33.9220 173.4220 155° Southeast 466 536 35,000  Level FlightAware ADS-B
Fri 06:19:52 PM -33.9780 173.4630 149° Southeast 459 528 35,000  Level FlightAware ADS-B
Fri 06:20:32 PM -34.0520 173.5180 149° Southeast 458 527 35,000  Level FlightAware ADS-B
Fri 06:20:36 PM -34.0667 173.5167 149° Southeast 464 534  Descending New Zealand
Fri 06:21:03 PM -34.1070 173.5600 148° Southeast 457 526 35,000 33,333 Climbing FlightAware ADS-B
Fri 06:21:37 PM -34.1667 173.6000 148° Southeast 461 531  Descending New Zealand
Fri 06:21:39 PM -34.1720 173.6080 148° Southeast 456 525 35,000 51,220 Climbing FlightAware ADS-B
Fri 06:22:18 PM -34.2460 173.6640 148° Southeast 459 528 35,000  Level FlightAware ADS-B
Fri 06:22:53 PM -34.3100 173.7120 148° Southeast 469 540 35,000  Level FlightAware ADS-B
Fri 06:23:28 PM -34.3750 173.7600 149° Southeast 470 541 35,000  Level FlightAware ADS-B
Fri 06:23:58 PM -34.4300 173.8010 148° Southeast 471 542 35,000  Level FlightAware ADS-B
Fri 06:24:33 PM -34.4950 173.8510 148° Southeast 471 542 35,000  Level FlightAware ADS-B
Fri 06:24:40 PM -34.5167 173.8500 148° Southeast 470 541  Descending New Zealand
Fri 06:25:10 PM -34.5600 173.8990 149° Southeast 463 533 35,000 30,882 Climbing FlightAware ADS-B
Fri 06:25:42 PM -34.6167 173.9500 149° Southeast 470 541  Descending New Zealand
Fri 06:25:48 PM -34.6340 173.9560 149° Southeast 463 533 35,000 56,757 Climbing FlightAware ADS-B
Fri 06:26:19 PM -34.6900 173.9980 148° Southeast 463 533 35,000  Level FlightAware ADS-B
Fri 06:26:54 PM -34.7550 174.0480 148° Southeast 461 531 35,000  Level FlightAware ADS-B
Fri 06:27:34 PM -34.8280 174.1040 148° Southeast 462 532 35,000  Level FlightAware ADS-B
Fri 06:28:04 PM -34.8840 174.1470 148° Southeast 461 531 35,000  Level FlightAware ADS-B
Fri 06:28:40 PM -34.9460 174.1940 148° Southeast 462 532 35,000  Level FlightAware ADS-B
Fri 06:28:45 PM -34.9667 174.2000 148° Southeast 468 539  Descending New Zealand
Fri 06:29:14 PM -35.0130 174.2450 148° Southeast 463 533 35,000 32,308 Climbing FlightAware ADS-B
Fri 06:29:47 PM -35.0667 174.2833 148° Southeast 470 541  Descending New Zealand
Fri 06:29:50 PM -35.0780 174.2950 148° Southeast 471 542 35,000 56,757 Climbing FlightAware ADS-B
Fri 06:30:24 PM -35.1410 174.3430 148° Southeast 471 542 35,000  Level FlightAware ADS-B
Fri 06:31:00 PM -35.2070 174.3940 148° Southeast 472 543 35,000  Level FlightAware ADS-B
Fri 06:31:35 PM -35.2730 174.4440 148° Southeast 466 536 35,000 -85 Level FlightAware ADS-B
Fri 06:32:11 PM -35.3380 174.4950 147° Southeast 462 532 34,900 -1,114 Descending FlightAware ADS-B
Fri 06:32:45 PM -35.4000 174.5430 147° Southeast 462 532 33,700 -2,229 Descending FlightAware ADS-B
Fri 06:32:50 PM -35.4167 174.5500 147° Southeast 470 541 -2,333 Descending New Zealand
Fri 06:33:21 PM -35.4660 174.5950 147° Southeast 458 527 32,300 28,615 Climbing FlightAware ADS-B
Fri 06:33:52 PM -35.5167 174.6333 147° Southeast 462 532 -2,294 Descending New Zealand
Fri 06:33:55 PM -35.5280 174.6430 147° Southeast 459 528 31,000 45,692 Climbing FlightAware ADS-B
Fri 06:34:31 PM -35.5910 174.6910 148° Southeast 446 513 29,700 -2,057 Descending FlightAware ADS-B
Fri 06:35:05 PM -35.6520 174.7390 147° Southeast 441 507 28,600 -1,971 Descending FlightAware ADS-B
Fri 06:35:41 PM -35.7120 174.7860 148° Southeast 426 490 27,400 -2,057 Descending FlightAware ADS-B
Fri 06:36:15 PM -35.7700 174.8310 148° Southeast 422 486 26,200 -1,739 Descending FlightAware ADS-B
Fri 06:36:50 PM -35.8270 174.8760 148° Southeast 403 464 25,400 -1,629 Descending FlightAware ADS-B
Fri 06:36:55 PM -35.8333 174.8833 148° Southeast 412 474 -1,886 Descending New Zealand
Fri 06:37:25 PM -35.8820 174.9190 148° Southeast 403 464 24,300 21,323 Climbing FlightAware ADS-B
Fri 06:37:57 PM -35.9333 174.9500 148° Southeast 401 461 -2,057 Descending New Zealand
Fri 06:38:00 PM -35.9370 174.9630 148° Southeast 398 458 23,100 29,864 Climbing FlightAware ADS-B
Fri 06:38:41 PM -35.9990 175.0120 147° Southeast 382 440 21,900 -1,816 Descending FlightAware ADS-B
Fri 06:39:16 PM -36.0530 175.0540 148° Southeast 382 440 20,800 -1,886 Descending FlightAware ADS-B
Fri 06:39:51 PM -36.1040 175.0950 148° Southeast 366 421 19,700 -1,800 Descending FlightAware ADS-B
Fri 06:39:59 PM -36.1167 175.1000 148° Southeast 377 434 -1,714 Descending New Zealand
Fri 06:40:26 PM -36.1540 175.1340 148° Southeast 362 417 18,700 17,129 Climbing FlightAware ADS-B
Fri 06:41:00 PM -36.2000 175.1667 148° Southeast 360 414 -1,714 Descending New Zealand
Fri 06:41:01 PM -36.2020 175.1720 148° Southeast 347 399 17,700 27,833 Climbing FlightAware ADS-B
Fri 06:41:36 PM -36.2500 175.2100 147° Southeast 345 397 16,700 -1,500 Descending FlightAware ADS-B
Fri 06:42:21 PM -36.3080 175.2570 147° Southeast 326 375 15,700 -1,395 Descending FlightAware ADS-B
Fri 06:43:02 PM -36.3610 175.2940 147° Southeast 303 349 14,700 -1,385 Descending FlightAware ADS-B
Fri 06:43:03 PM -36.3667 175.3000 147° Southeast 320 368 -1,091 Descending New Zealand
Fri 06:43:13 PM -36.3730 175.2950 176° South 292 336 14,500 22,378 Climbing FlightAware ADS-B
Fri 06:43:40 PM -36.4080 175.2830 195° South 262 302 13,800 -1,429 Descending FlightAware ADS-B
Fri 06:44:16 PM -36.4490 175.2640 200° South 255 293 13,000 -1,233 Descending FlightAware ADS-B
Fri 06:44:53 PM -36.4900 175.2450 200° South 239 275 12,300 -1,054 Descending FlightAware ADS-B
Fri 06:45:30 PM -36.5310 175.2300 196° South 235 270 11,700 -1,114 Descending FlightAware ADS-B
Fri 06:46:03 PM -36.5660 175.2220 196° South 233 268 11,000 -1,059 Descending FlightAware ADS-B
Fri 06:46:06 PM -36.5667 175.2167 196° South 240 276 -857 Descending New Zealand
Fri 06:46:38 PM -36.6030 175.2110 193° South 235 270 10,500 9,738 Climbing FlightAware ADS-B
Fri 06:47:07 PM -36.6340 175.2020 193° South 230 265 9,900 -1,080 Descending FlightAware ADS-B
Fri 06:47:08 PM -36.6333 175.2000 193° South 233 268 -857 Descending New Zealand
Fri 06:47:28 PM -36.6550 175.1960 193° South 232 267 9,600 13,950 Climbing FlightAware ADS-B
Fri 06:47:48 PM -36.6770 175.1890 194° South 231 266 9,300 -1,077 Descending FlightAware ADS-B
Fri 06:48:07 PM -36.6970 175.1830 194° South 229 264 8,900 -1,024 Descending FlightAware ADS-B
Fri 06:48:29 PM -36.7200 175.1770 192° South 215 247 8,600 -947 Descending FlightAware ADS-B
Fri 06:48:45 PM -36.7350 175.1730 192° South 218 251 8,300 -667 Descending FlightAware ADS-B
Fri 06:49:05 PM -36.7540 175.1680 192° South 198 228 8,200 -439 Descending FlightAware ADS-B
Fri 06:49:26 PM -36.7730 175.1620 194° South 199 229 8,000 -714 Descending FlightAware ADS-B
Fri 06:49:47 PM -36.7910 175.1570 193° South 196 226 7,700 -1,395 Descending FlightAware ADS-B
Fri 06:50:09 PM -36.8100 175.1510 194° South 199 229 7,000 -1,950 Descending FlightAware ADS-B
Fri 06:50:27 PM -36.8280 175.1460 193° South 201 231 6,400 -1,500 Descending FlightAware ADS-B
Fri 06:50:45 PM -36.8420 175.1390 202° Southwest 177 204 6,100 -789 Descending FlightAware ADS-B
Fri 06:51:05 PM -36.8560 175.1280 212° Southwest 163 188 5,900 -600 Descending FlightAware ADS-B
Fri 06:51:25 PM -36.8690 175.1170 214° Southwest 158 182 5,700 -750 Descending FlightAware ADS-B
Fri 06:51:45 PM -36.8810 175.1080 211° Southwest 151 174 5,400 -977 Descending FlightAware ADS-B
Fri 06:52:08 PM -36.8940 175.0970 214° Southwest 148 170 5,000 -977 Descending FlightAware ADS-B
Fri 06:52:28 PM -36.9060 175.0880 211° Southwest 140 161 4,700 -900 Descending FlightAware ADS-B
Fri 06:52:48 PM -36.9170 175.0790 213° Southwest 139 160 4,400 -714 Descending FlightAware ADS-B
Fri 06:53:10 PM -36.9300 175.0680 214° Southwest 147 169 4,200 -429 Descending FlightAware ADS-B
Fri 06:53:16 PM -36.9320 175.0650 230° Southwest 141 162 4,200 -353 Level FlightAware ADS-B
Fri 06:53:27 PM -36.9350 175.0570 245° Southwest 140 161 4,100 -581 Descending FlightAware ADS-B
Fri 06:53:47 PM -36.9410 175.0430 242° Southwest 137 158 3,900 -511 Descending FlightAware ADS-B
Fri 06:54:14 PM -36.9470 175.0230 249° West 137 158 3,700 -522 Descending FlightAware ADS-B
Fri 06:54:33 PM -36.9510 175.0060 254° West 140 161 3,500 -462 Descending FlightAware ADS-B
Fri 06:54:53 PM -36.9550 174.9920 250° West 145 167 3,400 -571 Descending FlightAware ADS-B
Fri 06:55:15 PM -36.9600 174.9750 250° West 147 169 3,100 -800 Descending FlightAware ADS-B
Fri 06:55:38 PM -36.9640 174.9580 254° West 148 170 2,800 -714 Descending FlightAware ADS-B
Fri 06:55:57 PM -36.9690 174.9430 247° West 148 170 2,600 -750 Descending FlightAware ADS-B
Fri 06:56:18 PM -36.9730 174.9260 254° West 144 166 2,300 -909 Descending FlightAware ADS-B
Fri 06:56:30 PM -36.9770 174.9140 247° West 143 165 2,100 -811 Descending FlightAware ADS-B
Fri 06:56:55 PM -36.9820 174.8950 252° West 132 152 1,800 -667 Descending FlightAware ADS-B
Fri 06:57:06 PM -36.9840 174.8890 247° West 132 152 1,700 -789 Descending FlightAware ADS-B
Fri 06:57:33 PM -36.9900 174.8660 252° West 130 150 1,300 -800 Descending FlightAware ADS-B
Fri 06:57:51 PM -36.9930 174.8540 253° West 119 137 1,100 -621 Descending FlightAware ADS-B
Fri 06:58:02 PM -36.9950 174.8490 243° Southwest 122 140 1,000 -750 Descending FlightAware ADS-B
Fri 06:58:31 PM -37.0010 174.8260 252° West 128 147 600 -667 Descending FlightAware ADS-B
Fri 06:58:47 PM -37.0040 174.8150 251° West 126 145 500 -375 Descending FlightAware ADS-B
Fri 06:59:19 PM -37.0100 174.7930 251° West 90 104 -938 Descending FlightAware ADS-B
Fri 06:59:23 PM -37.0167 174.7833 251° West 101 116  Level New Zealand

Login

Don't have an account? Register now (free) for customized features, flight alerts, and more!